createdAt,value
2022-10-05T00:00:48.878Z,82.89
2022-10-05T00:03:13.009Z,84.05
2022-10-05T00:05:37.160Z,83.13
2022-10-05T00:08:13.102Z,85.70
2022-10-05T00:10:36.958Z,87.14
2022-10-05T00:13:01.894Z,85.81
2022-10-05T00:15:25.533Z,84.51
2022-10-05T00:17:49.365Z,85.05
2022-10-05T00:20:24.441Z,87.84
2022-10-05T00:22:48.454Z,86.54
2022-10-05T00:25:17.715Z,85.80
2022-10-05T00:27:41.542Z,85.45
2022-10-05T00:30:16.242Z,86.13
2022-10-05T00:32:39.990Z,86.98
2022-10-05T00:35:03.537Z,85.39
2022-10-05T00:37:27.242Z,84.64
2022-10-05T00:39:51.440Z,85.18
2022-10-05T00:42:36.459Z,87.29
2022-10-05T00:45:09.016Z,87.62
2022-10-05T00:47:45.091Z,86.03
2022-10-05T00:50:37.307Z,86.12
2022-10-05T00:53:13.315Z,85.90
2022-10-05T00:55:48.775Z,88.06
2022-10-05T00:58:31.926Z,88.25
2022-10-05T01:01:07.575Z,86.56
2022-10-05T01:03:40.628Z,86.63
2022-10-05T01:06:17.711Z,87.40
2022-10-05T01:08:52.519Z,88.55
2022-10-05T01:11:22.034Z,88.10
2022-10-05T01:13:58.161Z,88.01
2022-10-05T01:16:32.284Z,88.12
2022-10-05T01:19:03.288Z,89.48
2022-10-05T01:21:28.480Z,88.20
2022-10-05T01:24:38.274Z,88.61
2022-10-05T01:27:20.650Z,88.06
2022-10-05T01:29:52.211Z,88.08
2022-10-05T01:32:27.041Z,89.59
2022-10-05T01:35:00.428Z,88.81
2022-10-05T01:37:34.947Z,88.88
2022-10-05T01:40:08.261Z,89.37
2022-10-05T01:42:44.250Z,88.51
2022-10-05T01:45:16.708Z,88.21
2022-10-05T01:47:46.564Z,89.06
2022-10-05T01:50:22.371Z,86.97
2022-10-05T01:52:56.015Z,86.27
2022-10-05T01:55:32.275Z,85.74
2022-10-05T01:58:12.957Z,87.65
2022-10-05T02:00:47.211Z,85.94
2022-10-05T02:03:18.589Z,85.97
2022-10-05T02:05:51.327Z,86.41
2022-10-05T02:08:23.816Z,85.81
2022-10-05T02:10:54.334Z,85.71
2022-10-05T02:13:28.236Z,85.90
2022-10-05T02:15:59.648Z,85.00
2022-10-05T02:18:30.135Z,86.96
2022-10-05T02:20:59.854Z,85.58
2022-10-05T02:23:28.099Z,85.25
2022-10-05T02:25:54.360Z,85.72
2022-10-05T02:28:24.812Z,84.72
2022-10-05T02:30:56.572Z,85.21
2022-10-05T02:33:28.699Z,85.04
2022-10-05T02:35:54.912Z,85.01
2022-10-05T02:38:29.893Z,84.76
2022-10-05T02:41:05.487Z,84.98
2022-10-05T02:43:40.271Z,85.80
2022-10-05T02:46:19.771Z,85.33
2022-10-05T02:48:52.774Z,85.71
2022-10-05T02:51:22.609Z,85.61
2022-10-05T02:54:00.616Z,86.19
2022-10-05T02:56:33.492Z,85.43
2022-10-05T02:59:09.540Z,86.26
2022-10-05T03:01:42.655Z,85.25
2022-10-05T03:04:22.778Z,85.54
2022-10-05T03:06:55.755Z,85.32
2022-10-05T03:09:22.056Z,86.39
2022-10-05T03:11:54.931Z,86.13
2022-10-05T03:14:25.461Z,86.50
2022-10-05T03:17:07.687Z,86.78
2022-10-05T03:20:13.962Z,87.41
2022-10-05T03:22:49.835Z,86.91
2022-10-05T03:25:52.037Z,89.92
2022-10-05T03:28:21.093Z,88.36
2022-10-05T03:30:55.214Z,88.50
2022-10-05T03:33:31.562Z,86.70
2022-10-05T03:36:06.259Z,88.62
2022-10-05T03:38:40.796Z,88.54
2022-10-05T03:41:14.450Z,88.22
2022-10-05T03:44:09.425Z,87.00
2022-10-05T03:46:49.836Z,87.71
2022-10-05T03:49:24.899Z,88.17
2022-10-05T03:51:53.150Z,89.19
2022-10-05T03:54:25.869Z,88.55
2022-10-05T03:56:54.772Z,88.18
2022-10-05T03:59:25.234Z,88.44
2022-10-05T04:01:55.993Z,88.37
2022-10-05T04:04:29.172Z,89.33
2022-10-05T04:06:54.870Z,88.78
2022-10-05T04:09:26.492Z,89.70
2022-10-05T04:11:57.704Z,91.72
2022-10-05T04:14:26.749Z,90.28
2022-10-05T04:16:56.827Z,89.34
2022-10-05T04:19:25.953Z,88.02
2022-10-05T04:21:53.726Z,89.57
2022-10-05T04:24:21.457Z,88.91
2022-10-05T04:26:52.511Z,87.65
2022-10-05T04:29:25.233Z,88.55
2022-10-05T04:32:04.341Z,87.82
2022-10-05T04:34:58.012Z,88.97
2022-10-05T04:37:30.131Z,88.57
2022-10-05T04:40:10.208Z,88.27
2022-10-05T04:42:40.223Z,89.08
2022-10-05T04:45:11.494Z,90.37
2022-10-05T04:48:11.229Z,88.85
2022-10-05T04:50:51.029Z,89.48
2022-10-05T04:53:26.936Z,88.24
2022-10-05T04:55:59.354Z,88.87
2022-10-05T04:58:42.599Z,88.44
2022-10-05T05:01:28.983Z,87.88
2022-10-05T05:04:16.503Z,86.55
2022-10-05T05:06:48.740Z,87.34
2022-10-05T05:09:36.739Z,88.51
2022-10-05T05:12:20.859Z,87.92
2022-10-05T05:15:29.394Z,87.56
2022-10-05T05:18:46.963Z,87.65
2022-10-05T05:21:28.289Z,88.20
2022-10-05T05:24:05.428Z,88.95
2022-10-05T05:26:55.268Z,86.83
2022-10-05T05:29:32.391Z,86.74
2022-10-05T05:32:10.030Z,87.75
2022-10-05T05:34:46.627Z,87.73
2022-10-05T05:37:23.268Z,88.41
2022-10-05T05:40:02.983Z,88.22
2022-10-05T05:42:46.746Z,89.96
2022-10-05T05:45:18.843Z,89.81
2022-10-05T05:47:53.942Z,89.86
2022-10-05T05:50:35.326Z,89.28
2022-10-05T05:53:07.827Z,89.14
2022-10-05T05:55:39.700Z,90.52
2022-10-05T05:58:12.566Z,90.46
2022-10-05T06:00:44.213Z,89.98
2022-10-05T06:03:18.204Z,90.57
2022-10-05T06:05:48.092Z,90.03
2022-10-05T06:08:20.892Z,89.50
2022-10-05T06:10:54.253Z,88.99
2022-10-05T06:13:23.018Z,90.29
2022-10-05T06:15:54.263Z,90.49
2022-10-05T06:18:21.718Z,90.46
2022-10-05T06:20:53.483Z,91.17
2022-10-05T06:23:22.440Z,91.03
2022-10-05T06:26:10.908Z,91.47
2022-10-05T06:28:37.853Z,92.13
2022-10-05T06:31:17.385Z,92.61
2022-10-05T06:33:51.994Z,92.29
2022-10-05T06:36:39.387Z,91.02
2022-10-05T06:40:09.278Z,92.32
2022-10-05T06:42:50.719Z,93.05
2022-10-05T06:45:53.269Z,92.96
2022-10-05T06:49:17.188Z,92.61
2022-10-05T06:51:59.539Z,93.59
2022-10-05T06:55:00.209Z,93.16
2022-10-05T06:57:54.659Z,92.70
2022-10-05T07:00:22.215Z,90.49
2022-10-05T07:02:56.693Z,89.72
2022-10-05T07:06:03.942Z,90.00
2022-10-05T07:08:50.290Z,89.50
2022-10-05T07:11:28.469Z,89.21
2022-10-05T07:14:15.706Z,88.02
2022-10-05T07:17:01.121Z,88.61
2022-10-05T07:19:36.852Z,88.53
2022-10-05T07:22:29.382Z,87.46
2022-10-05T07:25:03.463Z,86.88
2022-10-05T07:27:29.822Z,87.32
2022-10-05T07:30:02.718Z,85.27
2022-10-05T07:32:36.862Z,85.53
2022-10-05T07:35:09.978Z,83.86
2022-10-05T07:37:54.870Z,83.93
2022-10-05T07:40:30.119Z,82.11
2022-10-05T07:43:09.010Z,82.94
2022-10-05T07:45:42.900Z,80.97
2022-10-05T07:48:17.580Z,80.58
2022-10-05T07:50:55.331Z,81.39
2022-10-05T07:53:24.835Z,81.68
2022-10-05T07:55:54.371Z,80.54
2022-10-05T07:58:27.664Z,79.51
2022-10-05T08:01:08.106Z,79.08
2022-10-05T08:03:49.461Z,78.45
2022-10-05T08:06:25.723Z,77.59
2022-10-05T08:08:58.082Z,79.31
2022-10-05T08:11:31.074Z,77.66
2022-10-05T08:13:58.378Z,79.53
2022-10-05T08:16:28.396Z,78.00
2022-10-05T08:18:58.651Z,76.85
2022-10-05T08:21:29.123Z,76.15
2022-10-05T08:23:58.164Z,76.44
2022-10-05T08:26:34.654Z,75.90
2022-10-05T08:29:13.884Z,75.62
2022-10-05T08:31:41.837Z,75.93
2022-10-05T08:34:23.321Z,75.46
2022-10-05T08:36:56.269Z,75.15
2022-10-05T08:39:22.945Z,74.00
2022-10-05T08:42:41.975Z,74.94
2022-10-05T08:45:58.536Z,74.60
2022-10-05T08:49:19.118Z,74.11
2022-10-05T08:52:24.033Z,73.50
2022-10-05T08:55:30.775Z,73.08
2022-10-05T08:58:31.298Z,73.15
2022-10-05T09:01:03.381Z,72.12
2022-10-05T09:03:49.441Z,70.95
2022-10-05T09:06:31.658Z,70.53
2022-10-05T09:09:45.511Z,69.99
2022-10-05T09:12:48.148Z,71.42
2022-10-05T09:15:38.454Z,71.29
2022-10-05T09:18:55.774Z,70.74
2022-10-05T09:21:42.966Z,71.91
2022-10-05T09:24:27.691Z,70.74
2022-10-05T09:27:04.615Z,70.97
2022-10-05T09:30:15.992Z,70.53
2022-10-05T09:33:40.926Z,68.63
2022-10-05T09:36:51.544Z,69.98
2022-10-05T09:39:57.857Z,69.74
2022-10-05T09:43:05.231Z,68.44
2022-10-05T09:45:53.399Z,69.51
2022-10-05T09:48:51.572Z,67.85
2022-10-05T09:52:07.629Z,67.60
2022-10-05T09:55:05.556Z,67.21
2022-10-05T09:58:18.232Z,67.19
2022-10-05T10:01:09.425Z,67.87
2022-10-05T10:04:24.805Z,67.98
2022-10-05T10:07:31.845Z,65.09
2022-10-05T10:10:29.288Z,65.13
2022-10-05T10:13:16.410Z,63.49
2022-10-05T10:16:10.185Z,63.83
2022-10-05T10:19:13.715Z,66.27
2022-10-05T10:22:06.746Z,61.60
2022-10-05T10:24:55.921Z,59.07
2022-10-05T10:27:40.689Z,60.43
2022-10-05T10:30:44.703Z,60.86
2022-10-05T10:34:03.014Z,59.71
2022-10-05T10:36:52.634Z,59.19
2022-10-05T10:39:27.186Z,60.41
2022-10-05T10:42:28.843Z,60.27
2022-10-05T10:45:21.159Z,60.82
2022-10-05T10:48:05.326Z,61.72
2022-10-05T10:51:05.501Z,61.75
2022-10-05T10:54:05.085Z,60.73
2022-10-05T10:56:48.319Z,61.48
2022-10-05T10:59:57.352Z,61.65
2022-10-05T11:03:09.136Z,62.00
2022-10-05T11:06:00.627Z,64.00
2022-10-05T11:09:18.219Z,59.47
2022-10-05T11:12:59.314Z,61.27
2022-10-05T11:16:18.701Z,62.85
2022-10-05T11:19:20.417Z,63.74
2022-10-05T11:22:02.180Z,59.21
2022-10-05T11:25:16.541Z,60.38
2022-10-05T11:28:01.393Z,57.70
2022-10-05T11:31:04.429Z,57.54
2022-10-05T11:34:13.841Z,60.25
2022-10-05T11:37:23.555Z,60.04
2022-10-05T11:40:43.069Z,56.28
2022-10-05T11:43:58.011Z,56.06
2022-10-05T11:46:29.473Z,56.71
2022-10-05T11:49:31.575Z,58.71
2022-10-05T11:52:07.846Z,62.56
2022-10-05T11:55:11.426Z,59.27
2022-10-05T11:57:44.299Z,57.12
2022-10-05T12:00:17.535Z,56.47
2022-10-05T12:03:11.010Z,57.61
2022-10-05T12:05:41.602Z,56.46
2022-10-05T12:08:22.667Z,56.35
2022-10-05T12:10:58.760Z,57.58
2022-10-05T12:13:34.926Z,58.53
2022-10-05T12:16:04.655Z,57.20
2022-10-05T12:18:48.313Z,57.11
2022-10-05T12:21:27.729Z,57.16
2022-10-05T12:23:58.839Z,57.34
2022-10-05T12:26:27.681Z,57.58
2022-10-05T12:28:57.035Z,57.95
2022-10-05T12:31:31.634Z,57.96
2022-10-05T12:34:05.354Z,58.37
2022-10-05T12:37:02.513Z,60.21
2022-10-05T12:39:29.987Z,57.54
2022-10-05T12:42:05.594Z,58.60
2022-10-05T12:45:06.318Z,58.54
2022-10-05T12:47:41.763Z,58.15
2022-10-05T12:50:18.914Z,55.96
2022-10-05T12:52:59.634Z,57.08
2022-10-05T12:55:30.163Z,57.20
2022-10-05T12:58:06.635Z,57.40
2022-10-05T13:00:35.111Z,57.22
2022-10-05T13:03:04.414Z,57.08
2022-10-05T13:05:37.616Z,57.07
2022-10-05T13:08:17.826Z,56.91
2022-10-05T13:10:47.806Z,58.36
2022-10-05T13:13:34.279Z,57.11
2022-10-05T13:16:11.260Z,58.59
2022-10-05T13:18:51.863Z,56.21
2022-10-05T13:21:21.939Z,56.64
2022-10-05T13:23:58.039Z,57.52
2022-10-05T13:26:29.479Z,57.65
2022-10-05T13:28:58.751Z,57.19
2022-10-05T13:31:28.403Z,56.84
2022-10-05T13:34:04.031Z,56.38
2022-10-05T13:36:39.757Z,57.43
2022-10-05T13:39:14.848Z,57.14
2022-10-05T13:41:49.583Z,57.21
2022-10-05T13:44:24.227Z,56.43
2022-10-05T13:46:52.440Z,56.44
2022-10-05T13:49:29.379Z,54.94
2022-10-05T13:52:01.292Z,54.94
2022-10-05T13:54:38.362Z,55.25
2022-10-05T13:57:18.549Z,54.74
2022-10-05T13:59:50.965Z,55.62
2022-10-05T14:02:22.517Z,55.46
2022-10-05T14:04:50.824Z,56.22
2022-10-05T14:07:34.227Z,56.21
2022-10-05T14:09:59.770Z,56.38
2022-10-05T14:12:25.276Z,56.32
2022-10-05T14:14:51.818Z,55.86
2022-10-05T14:17:18.328Z,57.42
2022-10-05T14:19:46.346Z,55.76
2022-10-05T14:22:16.151Z,55.90
2022-10-05T14:24:52.162Z,56.16
2022-10-05T14:27:27.881Z,56.26
2022-10-05T14:29:59.756Z,56.79
2022-10-05T14:32:27.118Z,55.62
2022-10-05T14:35:05.083Z,56.16
2022-10-05T14:37:44.664Z,56.58
2022-10-05T14:40:29.574Z,56.00
2022-10-05T14:42:56.128Z,56.59
2022-10-05T14:45:22.348Z,56.55
2022-10-05T14:47:52.479Z,57.20
2022-10-05T14:50:21.310Z,57.42
2022-10-05T14:53:01.763Z,57.02
2022-10-05T14:55:55.745Z,57.73
2022-10-05T14:58:53.591Z,57.90
2022-10-05T15:01:26.489Z,58.10
2022-10-05T15:04:02.481Z,58.44
2022-10-05T15:06:35.742Z,58.65
2022-10-05T15:09:41.052Z,59.81
2022-10-05T15:12:05.499Z,59.27
2022-10-05T15:14:33.926Z,58.55
2022-10-05T15:17:03.251Z,60.45
2022-10-05T15:19:36.786Z,60.17
2022-10-05T15:22:28.203Z,60.12
2022-10-05T15:25:04.707Z,59.83
2022-10-05T15:27:40.585Z,59.71
2022-10-05T15:30:13.658Z,59.79
2022-10-05T15:32:47.740Z,60.16
2022-10-05T15:35:36.935Z,60.49
2022-10-05T15:38:13.102Z,60.77
2022-10-05T15:40:43.325Z,60.56
2022-10-05T15:43:17.238Z,60.61
2022-10-05T15:45:53.887Z,59.45
2022-10-05T15:48:23.723Z,61.31
2022-10-05T15:50:57.000Z,60.85
2022-10-05T15:53:29.239Z,61.28
2022-10-05T15:55:56.779Z,61.60
2022-10-05T15:58:48.220Z,60.74
2022-10-05T16:01:18.420Z,61.85
2022-10-05T16:03:58.204Z,61.41
2022-10-05T16:06:56.097Z,61.45
2022-10-05T16:09:40.236Z,61.95
2022-10-05T16:12:18.747Z,63.08
2022-10-05T16:14:56.599Z,62.82
2022-10-05T16:17:36.976Z,62.23
2022-10-05T16:20:25.494Z,63.08
2022-10-05T16:22:59.678Z,63.39
2022-10-05T16:25:30.311Z,63.18
2022-10-05T16:28:19.308Z,64.00
2022-10-05T16:30:55.408Z,63.58
2022-10-05T16:33:29.267Z,63.67
2022-10-05T16:36:03.699Z,63.82
2022-10-05T16:38:41.322Z,64.24
2022-10-05T16:41:12.736Z,64.26
2022-10-05T16:43:46.035Z,63.59
2022-10-05T16:46:22.325Z,63.57
2022-10-05T16:49:00.835Z,64.08
2022-10-05T16:51:33.447Z,64.61
2022-10-05T16:54:13.366Z,64.82
2022-10-05T16:56:44.155Z,64.24
2022-10-05T16:59:33.496Z,64.27
2022-10-05T17:02:08.047Z,64.67
2022-10-05T17:04:46.234Z,65.20
2022-10-05T17:07:28.714Z,64.85
2022-10-05T17:10:14.929Z,65.31
2022-10-05T17:12:56.546Z,65.29
2022-10-05T17:15:37.341Z,64.88
2022-10-05T17:18:27.424Z,65.25
2022-10-05T17:21:02.599Z,66.26
2022-10-05T17:23:54.733Z,65.61
2022-10-05T17:26:53.555Z,66.98
2022-10-05T17:29:27.960Z,66.74
2022-10-05T17:32:12.448Z,66.68
2022-10-05T17:34:39.727Z,67.36
2022-10-05T17:37:35.617Z,67.81
2022-10-05T17:40:01.778Z,67.40
2022-10-05T17:42:49.127Z,68.58
2022-10-05T17:45:55.793Z,70.44
2022-10-05T17:49:03.396Z,68.99
2022-10-05T17:52:20.796Z,69.90
2022-10-05T17:55:28.258Z,70.43
2022-10-05T17:57:52.497Z,71.74
2022-10-05T18:00:43.655Z,71.76
2022-10-05T18:03:42.295Z,71.61
2022-10-05T18:06:35.483Z,72.22
2022-10-05T18:09:30.892Z,72.36
2022-10-05T18:12:30.653Z,72.92
2022-10-05T18:15:22.505Z,73.06
2022-10-05T18:17:48.483Z,73.69
2022-10-05T18:20:31.582Z,73.99
2022-10-05T18:23:34.600Z,73.94
2022-10-05T18:26:06.878Z,74.50
2022-10-05T18:28:51.275Z,75.08
2022-10-05T18:31:29.229Z,75.57
2022-10-05T18:34:08.025Z,75.03
2022-10-05T18:37:10.812Z,74.80
2022-10-05T18:39:59.275Z,75.10
2022-10-05T18:42:34.131Z,74.80
2022-10-05T18:45:06.959Z,76.75
2022-10-05T18:47:39.853Z,76.30
2022-10-05T18:50:28.191Z,76.31
2022-10-05T18:53:08.532Z,76.25
2022-10-05T18:55:37.739Z,76.45
2022-10-05T18:58:26.503Z,76.53
2022-10-05T19:01:34.268Z,77.53
2022-10-05T19:04:14.899Z,77.05
2022-10-05T19:06:53.227Z,77.76
2022-10-05T19:09:39.775Z,78.19
2022-10-05T19:12:14.992Z,79.59
2022-10-05T19:14:48.938Z,79.31
2022-10-05T19:17:25.607Z,79.83
2022-10-05T19:20:17.385Z,79.37
2022-10-05T19:23:08.416Z,78.00
2022-10-05T19:25:39.528Z,78.79
2022-10-05T19:28:17.460Z,78.74
2022-10-05T19:31:01.547Z,79.48
2022-10-05T19:33:50.269Z,80.19
2022-10-05T19:36:34.097Z,79.12
2022-10-05T19:39:09.124Z,79.29
2022-10-05T19:41:50.628Z,78.92
2022-10-05T19:44:31.754Z,79.31
2022-10-05T19:47:02.693Z,79.73
2022-10-05T19:49:49.523Z,79.34
2022-10-05T19:52:22.258Z,81.66
2022-10-05T19:54:45.994Z,81.71
2022-10-05T19:57:18.181Z,82.83
2022-10-05T19:59:47.822Z,83.53
2022-10-05T20:02:16.955Z,82.16
2022-10-05T20:04:44.276Z,83.98
2022-10-05T20:07:13.394Z,83.65
2022-10-05T20:09:53.869Z,84.71
2022-10-05T20:12:17.446Z,84.30
2022-10-05T20:15:00.972Z,86.05
2022-10-05T20:17:45.647Z,85.75
2022-10-05T20:20:31.945Z,85.64
2022-10-05T20:23:23.263Z,84.74
2022-10-05T20:26:07.844Z,85.00
2022-10-05T20:28:32.274Z,85.24
2022-10-05T20:30:56.255Z,83.84
2022-10-05T20:33:19.968Z,84.54
2022-10-05T20:35:44.895Z,84.35
2022-10-05T20:38:08.536Z,83.20
2022-10-05T20:40:32.163Z,84.65
2022-10-05T20:42:56.127Z,83.23
2022-10-05T20:45:19.763Z,83.96
2022-10-05T20:47:46.888Z,83.70
2022-10-05T20:50:11.900Z,83.40
2022-10-05T20:52:37.715Z,83.62
2022-10-05T20:55:01.825Z,83.06
2022-10-05T20:57:25.595Z,82.98
2022-10-05T20:59:49.107Z,82.70
2022-10-05T21:02:12.707Z,82.98
2022-10-05T21:04:40.808Z,82.94
2022-10-05T21:07:06.547Z,82.72
2022-10-05T21:09:31.790Z,81.86
2022-10-05T21:11:56.162Z,82.67
2022-10-05T21:14:19.821Z,82.25
2022-10-05T21:16:45.929Z,81.91
2022-10-05T21:19:10.651Z,81.66
2022-10-05T21:21:34.503Z,81.02
2022-10-05T21:23:58.268Z,82.06
2022-10-05T21:26:23.244Z,81.00
2022-10-05T21:28:47.112Z,81.39
2022-10-05T21:31:11.478Z,81.64
2022-10-05T21:33:35.315Z,81.53
2022-10-05T21:35:58.911Z,80.60
2022-10-05T21:38:22.566Z,79.97
2022-10-05T21:40:46.226Z,79.94
2022-10-05T21:43:13.353Z,79.69
2022-10-05T21:45:37.381Z,79.51
2022-10-05T21:48:01.159Z,79.56
2022-10-05T21:50:25.034Z,79.87
2022-10-05T21:52:50.147Z,81.37
2022-10-05T21:55:13.965Z,79.73
2022-10-05T21:57:39.106Z,80.06
2022-10-05T22:00:05.936Z,79.56
2022-10-05T22:02:30.212Z,79.71
2022-10-05T22:04:54.023Z,80.11
2022-10-05T22:07:19.602Z,79.29
2022-10-05T22:09:43.444Z,79.19
2022-10-05T22:12:07.235Z,78.85
2022-10-05T22:14:31.556Z,79.44
2022-10-05T22:16:56.684Z,80.07
2022-10-05T22:19:21.836Z,78.83
2022-10-05T22:21:45.596Z,79.29
2022-10-05T22:24:09.618Z,79.53
2022-10-05T22:26:33.327Z,80.08
2022-10-05T22:28:57.182Z,79.03
2022-10-05T22:31:20.943Z,79.00
2022-10-05T22:33:46.369Z,79.85
2022-10-05T22:36:10.767Z,80.24
2022-10-05T22:38:34.602Z,80.06
2022-10-05T22:40:58.486Z,79.49
2022-10-05T22:43:22.245Z,80.19
2022-10-05T22:45:46.089Z,80.37
2022-10-05T22:48:10.037Z,80.03
2022-10-05T22:50:35.346Z,79.57
2022-10-05T22:52:59.084Z,80.25
2022-10-05T22:55:23.159Z,80.64
2022-10-05T22:57:47.075Z,79.75
2022-10-05T23:00:13.845Z,79.51
2022-10-05T23:02:38.782Z,80.59
2022-10-05T23:05:02.529Z,80.41
2022-10-05T23:07:28.071Z,79.79
2022-10-05T23:09:51.772Z,79.52
2022-10-05T23:12:15.523Z,79.76
2022-10-05T23:14:39.192Z,79.70
2022-10-05T23:17:03.098Z,80.50
2022-10-05T23:19:26.792Z,80.59
2022-10-05T23:21:50.700Z,80.60
2022-10-05T23:24:15.736Z,81.50
2022-10-05T23:26:39.547Z,82.83
2022-10-05T23:29:03.311Z,82.02
2022-10-05T23:31:31.676Z,82.12
2022-10-05T23:33:55.701Z,83.09
2022-10-05T23:36:22.003Z,82.26
2022-10-05T23:38:45.914Z,82.49
2022-10-05T23:41:11.057Z,81.74
2022-10-05T23:43:34.776Z,81.34
2022-10-05T23:45:58.342Z,81.25
2022-10-05T23:48:22.257Z,81.72
2022-10-05T23:50:49.097Z,81.13
2022-10-05T23:53:12.923Z,81.92
2022-10-05T23:55:36.539Z,82.47
2022-10-05T23:58:01.443Z,81.57
